createdAt,value
2023-04-23T04:01:50.421Z,98897.19
2023-04-23T04:05:54.405Z,98901.28
2023-04-23T04:09:56.987Z,98906.13
2023-04-23T04:14:01.522Z,98902.00
2023-04-23T04:18:05.433Z,98908.28
2023-04-23T04:22:07.973Z,98914.00
2023-04-23T04:26:10.834Z,98908.75
2023-04-23T04:30:14.004Z,98916.50
2023-04-23T04:34:17.882Z,98918.97
2023-04-23T04:38:21.799Z,98923.91
2023-04-23T04:42:25.364Z,98935.56
2023-04-23T04:46:29.102Z,98937.34
2023-04-23T04:50:33.138Z,98943.28
2023-04-23T04:54:35.649Z,98944.34
2023-04-23T04:58:38.184Z,98950.72
2023-04-23T05:02:40.770Z,98950.47
2023-04-23T05:06:44.742Z,98956.34
2023-04-23T05:10:47.274Z,98964.47
2023-04-23T05:14:50.050Z,98958.22
2023-04-23T05:18:53.438Z,98965.66
2023-04-23T05:22:59.356Z,98966.81
2023-04-23T05:27:02.487Z,98966.75
2023-04-23T05:31:05.186Z,98965.69
2023-04-23T05:35:08.330Z,98978.28
2023-04-23T05:39:12.145Z,98980.84
2023-04-23T05:43:14.779Z,98984.38
2023-04-23T05:47:18.338Z,98980.63
2023-04-23T05:51:20.864Z,98978.88
2023-04-23T05:55:25.216Z,98970.84
2023-04-23T05:59:27.743Z,98976.28
2023-04-23T06:03:30.516Z,98986.22
2023-04-23T06:07:33.204Z,98995.59
2023-04-23T06:11:37.052Z,98985.28
2023-04-23T06:15:39.659Z,98991.38
2023-04-23T06:19:42.204Z,98984.16
2023-04-23T06:23:44.725Z,98992.59
2023-04-23T06:27:48.650Z,98993.84
2023-04-23T06:31:56.433Z,98985.69
2023-04-23T06:35:58.964Z,98991.97
2023-04-23T06:40:01.527Z,98989.56
2023-04-23T06:44:06.062Z,98982.91
2023-04-23T06:48:11.915Z,98997.66
2023-04-23T06:52:14.498Z,99003.69
2023-04-23T06:56:17.026Z,99000.34
2023-04-23T07:00:21.445Z,98997.44
2023-04-23T07:04:24.239Z,98991.16
2023-04-23T07:08:26.846Z,98970.94
2023-04-23T07:12:29.382Z,98969.47
2023-04-23T07:16:34.000Z,98970.63
2023-04-23T07:20:37.082Z,98964.66
2023-04-23T07:24:39.763Z,98978.72
2023-04-23T07:28:42.351Z,98983.03
2023-04-23T07:32:46.329Z,98977.59
2023-04-23T07:36:48.849Z,98979.81
2023-04-23T07:40:51.385Z,98984.53
2023-04-23T07:44:53.876Z,98982.34
2023-04-23T07:48:57.749Z,98983.41
2023-04-23T07:53:00.407Z,98970.88
2023-04-23T07:57:02.953Z,98968.75
2023-04-23T08:01:05.572Z,98968.53
2023-04-23T08:05:10.621Z,98976.00
2023-04-23T08:09:13.278Z,98964.22
2023-04-23T08:13:15.793Z,98964.75
2023-04-23T08:17:18.303Z,98963.63
2023-04-23T08:21:22.428Z,98962.56
2023-04-23T08:25:25.032Z,98953.75
2023-04-23T08:29:27.524Z,98949.78
2023-04-23T08:33:30.077Z,98954.41
2023-04-23T08:37:33.919Z,98939.31
2023-04-23T08:41:40.825Z,98943.91
2023-04-23T08:45:48.162Z,98940.78
2023-04-23T08:49:54.925Z,98947.53
2023-04-23T08:54:00.295Z,98948.00
2023-04-23T08:58:06.200Z,98947.84
2023-04-23T09:02:10.468Z,98952.91
2023-04-23T09:06:13.310Z,98942.31
2023-04-23T09:10:18.656Z,98936.47
2023-04-23T09:14:23.044Z,98938.50
2023-04-23T09:18:25.870Z,98940.66
2023-04-23T09:22:45.122Z,98935.22
2023-04-23T09:26:52.074Z,98938.22
2023-04-23T09:30:54.696Z,98926.31
2023-04-23T09:34:57.864Z,98920.34
2023-04-23T09:39:00.362Z,98915.91
2023-04-23T09:43:05.861Z,98913.78
2023-04-23T09:47:10.456Z,98898.78
2023-04-23T09:51:14.757Z,98896.34
2023-04-23T09:55:28.767Z,98905.91
2023-04-23T09:59:46.826Z,98884.88
2023-04-23T10:03:54.446Z,98891.97
2023-04-23T10:07:58.334Z,98889.22
2023-04-23T10:12:02.872Z,98879.88
2023-04-23T10:16:20.447Z,98891.34
2023-04-23T10:20:24.789Z,98875.16
2023-04-23T10:24:30.455Z,98877.50
2023-04-23T10:28:34.683Z,98889.19
2023-04-23T10:32:39.350Z,98892.69
2023-04-23T10:36:41.895Z,98890.47
2023-04-23T10:40:47.698Z,98890.75
2023-04-23T10:44:59.356Z,98896.53
2023-04-23T10:49:14.352Z,98891.50
2023-04-23T10:53:21.019Z,98880.78
2023-04-23T10:57:23.694Z,98883.88
2023-04-23T11:01:26.877Z,98868.75
2023-04-23T11:05:30.819Z,98874.47
2023-04-23T11:09:39.188Z,98869.41
2023-04-23T11:13:52.494Z,98869.56
2023-04-23T11:18:02.732Z,98875.06
2023-04-23T11:22:08.331Z,98875.16
2023-04-23T11:26:10.998Z,98874.03
2023-04-23T11:30:16.316Z,98873.91
2023-04-23T11:34:19.387Z,98863.69
2023-04-23T11:38:23.281Z,98861.13
2023-04-23T11:42:25.893Z,98858.63
2023-04-23T11:46:28.495Z,98854.44
2023-04-23T11:50:33.703Z,98857.38
2023-04-23T11:54:37.811Z,98848.59
2023-04-23T11:58:40.314Z,98852.25
2023-04-23T12:02:51.933Z,98844.50
2023-04-23T12:06:55.681Z,98829.56
2023-04-23T12:11:03.181Z,98829.19
2023-04-23T12:15:07.090Z,98826.66
2023-04-23T12:19:10.303Z,98814.72
2023-04-23T12:23:13.134Z,98818.97
2023-04-23T12:27:20.238Z,98808.13
2023-04-23T12:31:24.244Z,98802.84
2023-04-23T12:35:39.158Z,98809.66
2023-04-23T12:39:41.974Z,98807.13
2023-04-23T12:43:48.618Z,98799.88
2023-04-23T12:47:51.266Z,98793.47
2023-04-23T12:51:57.212Z,98787.34
2023-04-23T12:55:59.772Z,98795.31
2023-04-23T13:00:04.934Z,98797.97
2023-04-23T13:04:07.808Z,98794.31
2023-04-23T13:08:10.358Z,98786.84
2023-04-23T13:12:12.922Z,98784.91
2023-04-23T13:16:16.820Z,98781.88
2023-04-23T13:20:19.374Z,98769.41
2023-04-23T13:24:21.971Z,98757.94
2023-04-23T13:28:25.165Z,98754.06
2023-04-23T13:32:32.139Z,98741.19
2023-04-23T13:36:35.122Z,98737.59
2023-04-23T13:40:37.981Z,98731.44
2023-04-23T13:44:40.518Z,98718.34
2023-04-23T13:48:44.370Z,98708.16
2023-04-23T13:52:48.006Z,98705.75
2023-04-23T13:56:50.560Z,98718.25
2023-04-23T14:00:53.352Z,98708.91
2023-04-23T14:04:58.280Z,98700.88
2023-04-23T14:09:00.810Z,98684.78
2023-04-23T14:13:04.005Z,98688.75
2023-04-23T14:17:06.535Z,98681.22
2023-04-23T14:21:10.417Z,98681.91
2023-04-23T14:25:24.377Z,98677.41
2023-04-23T14:29:32.651Z,98681.81
2023-04-23T14:33:35.136Z,98669.41
2023-04-23T14:37:39.036Z,98665.00
2023-04-23T14:41:42.081Z,98655.09
2023-04-23T14:45:44.886Z,98656.25
2023-04-23T14:49:47.486Z,98658.94
2023-04-23T14:53:53.977Z,98658.66
2023-04-23T14:57:57.857Z,98652.63
2023-04-23T15:02:01.761Z,98653.19
2023-04-23T15:06:05.043Z,98647.91
2023-04-23T15:10:11.651Z,98646.50
2023-04-23T15:14:23.965Z,98638.13
2023-04-23T15:18:26.574Z,98635.88
2023-04-23T15:22:29.087Z,98634.69
2023-04-23T15:26:33.657Z,98636.88
2023-04-23T15:30:36.205Z,98627.69
2023-04-23T15:34:38.720Z,98616.41
2023-04-23T15:38:41.280Z,98611.06
2023-04-23T15:42:45.336Z,98619.06
2023-04-23T15:46:47.868Z,98616.97
2023-04-23T15:50:50.393Z,98608.81
2023-04-23T15:54:52.889Z,98607.38
2023-04-23T15:58:57.010Z,98595.75
2023-04-23T16:03:01.036Z,98607.88
2023-04-23T16:07:03.948Z,98596.91
2023-04-23T16:11:08.749Z,98591.03
2023-04-23T16:15:13.106Z,98591.19
2023-04-23T16:19:15.680Z,98587.34
2023-04-23T16:23:18.199Z,98574.16
2023-04-23T16:27:21.018Z,98581.16
2023-04-23T16:31:24.964Z,98577.09
2023-04-23T16:35:27.922Z,98566.72
2023-04-23T16:39:30.496Z,98551.69
2023-04-23T16:43:33.134Z,98547.69
2023-04-23T16:47:38.161Z,98538.38
2023-04-23T16:51:40.700Z,98530.81
2023-04-23T16:55:43.267Z,98526.41
2023-04-23T16:59:45.869Z,98526.41
2023-04-23T17:03:50.008Z,98523.06
2023-04-23T17:07:53.246Z,98522.84
2023-04-23T17:11:56.627Z,98522.97
2023-04-23T17:15:59.588Z,98515.13
2023-04-23T17:20:03.908Z,98506.81
2023-04-23T17:24:06.841Z,98502.19
2023-04-23T17:28:09.408Z,98504.31
2023-04-23T17:32:12.076Z,98496.03
2023-04-23T17:36:16.806Z,98489.00
2023-04-23T17:40:19.558Z,98483.47
2023-04-23T17:44:22.428Z,98488.34
2023-04-23T17:48:25.278Z,98474.84
2023-04-23T17:52:29.161Z,98481.03
2023-04-23T17:56:31.872Z,98478.44
2023-04-23T18:00:35.480Z,98477.94
2023-04-23T18:04:38.073Z,98469.28
2023-04-23T18:08:42.766Z,98460.47
2023-04-23T18:12:45.584Z,98464.44
2023-04-23T18:16:48.208Z,98461.50
2023-04-23T18:20:51.786Z,98459.09
2023-04-23T18:24:55.914Z,98455.84
2023-04-23T18:28:58.441Z,98455.34
2023-04-23T18:33:08.490Z,98455.84
2023-04-23T18:37:27.074Z,98451.50
2023-04-23T18:41:31.151Z,98449.03
2023-04-23T18:45:33.681Z,98464.72
2023-04-23T18:49:44.628Z,98465.19
2023-04-23T18:53:47.203Z,98454.50
2023-04-23T18:57:51.052Z,98452.25
2023-04-23T19:01:53.612Z,98455.97
2023-04-23T19:05:56.263Z,98455.31
2023-04-23T19:09:58.830Z,98457.91
2023-04-23T19:14:02.703Z,98459.50
2023-04-23T19:18:06.114Z,98457.28
2023-04-23T19:22:08.645Z,98459.81
2023-04-23T19:26:11.637Z,98460.13
2023-04-23T19:30:15.776Z,98456.97
2023-04-23T19:34:19.128Z,98448.19
2023-04-23T19:38:21.686Z,98449.91
2023-04-23T19:42:24.206Z,98438.59
2023-04-23T19:46:28.166Z,98435.38
2023-04-23T19:50:31.814Z,98438.38
2023-04-23T19:54:34.382Z,98429.44
2023-04-23T19:58:36.907Z,98427.00
2023-04-23T20:02:41.194Z,98427.56
2023-04-23T20:06:43.834Z,98423.25
2023-04-23T20:10:46.396Z,98409.09
2023-04-23T20:14:48.876Z,98406.34
2023-04-23T20:18:52.735Z,98406.03
2023-04-23T20:22:55.272Z,98394.59
2023-04-23T20:26:58.481Z,98396.81
2023-04-23T20:31:00.987Z,98397.34
2023-04-23T20:35:05.329Z,98384.09
2023-04-23T20:39:08.143Z,98387.63
2023-04-23T20:43:10.838Z,98443.44
2023-04-23T20:47:13.585Z,98457.84
2023-04-23T20:51:17.449Z,98446.41
2023-04-23T20:55:20.205Z,98457.38
2023-04-23T20:59:22.931Z,98440.22
